sensor_id;sensor_type;location;lat;lon;timestamp;P1;durP1;ratioP1;P2;durP2;ratioP2
12383;SDS011;6256;63.808;20.336;2023-07-16T00:02:14;1.60;;;1.40;;
12383;SDS011;6256;63.808;20.336;2023-07-16T00:04:40;1.30;;;1.20;;
12383;SDS011;6256;63.808;20.336;2023-07-16T00:07:05;1.70;;;1.60;;
12383;SDS011;6256;63.808;20.336;2023-07-16T00:09:31;2.70;;;1.60;;
12383;SDS011;6256;63.808;20.336;2023-07-16T00:11:57;2.58;;;1.42;;
12383;SDS011;6256;63.808;20.336;2023-07-16T00:14:23;1.75;;;1.30;;
12383;SDS011;6256;63.808;20.336;2023-07-16T00:16:49;2.58;;;1.58;;
12383;SDS011;6256;63.808;20.336;2023-07-16T00:19:15;1.80;;;1.42;;
12383;SDS011;6256;63.808;20.336;2023-07-16T00:21:40;1.75;;;1.30;;
12383;SDS011;6256;63.808;20.336;2023-07-16T00:24:06;1.65;;;1.40;;
12383;SDS011;6256;63.808;20.336;2023-07-16T00:26:32;1.83;;;1.38;;
12383;SDS011;6256;63.808;20.336;2023-07-16T00:28:57;2.80;;;1.83;;
12383;SDS011;6256;63.808;20.336;2023-07-16T00:31:23;1.48;;;1.30;;
12383;SDS011;6256;63.808;20.336;2023-07-16T00:33:49;1.92;;;1.42;;
12383;SDS011;6256;63.808;20.336;2023-07-16T00:36:15;5.57;;;1.40;;
12383;SDS011;6256;63.808;20.336;2023-07-16T00:38:41;1.90;;;1.40;;
12383;SDS011;6256;63.808;20.336;2023-07-16T00:41:07;2.50;;;1.42;;
12383;SDS011;6256;63.808;20.336;2023-07-16T00:43:33;2.13;;;1.70;;
12383;SDS011;6256;63.808;20.336;2023-07-16T00:45:59;2.40;;;1.63;;
12383;SDS011;6256;63.808;20.336;2023-07-16T00:48:24;2.97;;;1.40;;
12383;SDS011;6256;63.808;20.336;2023-07-16T00:50:50;3.53;;;1.70;;
12383;SDS011;6256;63.808;20.336;2023-07-16T00:53:19;1.98;;;1.40;;
12383;SDS011;6256;63.808;20.336;2023-07-16T00:55:45;2.38;;;1.60;;
12383;SDS011;6256;63.808;20.336;2023-07-16T00:58:11;1.75;;;1.40;;
12383;SDS011;6256;63.808;20.336;2023-07-16T01:00:37;1.55;;;1.45;;
12383;SDS011;6256;63.808;20.336;2023-07-16T01:03:10;3.15;;;1.40;;
12383;SDS011;6256;63.808;20.336;2023-07-16T01:08:38;3.05;;;1.40;;
12383;SDS011;6256;63.808;20.336;2023-07-16T01:11:07;3.90;;;1.42;;
12383;SDS011;6256;63.808;20.336;2023-07-16T01:13:34;2.15;;;1.52;;
12383;SDS011;6256;63.808;20.336;2023-07-16T01:16:02;2.33;;;1.70;;
12383;SDS011;6256;63.808;20.336;2023-07-16T01:18:31;1.75;;;1.40;;
12383;SDS011;6256;63.808;20.336;2023-07-16T01:20:56;2.63;;;1.40;;
12383;SDS011;6256;63.808;20.336;2023-07-16T01:26:19;2.88;;;1.52;;
12383;SDS011;6256;63.808;20.336;2023-07-16T01:29:21;1.98;;;1.55;;
12383;SDS011;6256;63.808;20.336;2023-07-16T01:31:51;2.00;;;1.42;;
12383;SDS011;6256;63.808;20.336;2023-07-16T01:34:18;4.80;;;1.73;;
12383;SDS011;6256;63.808;20.336;2023-07-16T01:36:45;2.08;;;1.30;;
12383;SDS011;6256;63.808;20.336;2023-07-16T01:39:12;4.15;;;1.73;;
12383;SDS011;6256;63.808;20.336;2023-07-16T01:41:37;1.77;;;1.55;;
12383;SDS011;6256;63.808;20.336;2023-07-16T01:44:03;2.45;;;1.40;;
12383;SDS011;6256;63.808;20.336;2023-07-16T01:46:29;2.28;;;1.70;;
12383;SDS011;6256;63.808;20.336;2023-07-16T01:48:55;4.20;;;1.27;;
12383;SDS011;6256;63.808;20.336;2023-07-16T01:51:20;2.22;;;1.52;;
12383;SDS011;6256;63.808;20.336;2023-07-16T01:53:46;3.00;;;1.70;;
12383;SDS011;6256;63.808;20.336;2023-07-16T01:56:12;2.13;;;1.58;;
12383;SDS011;6256;63.808;20.336;2023-07-16T01:58:38;1.95;;;1.67;;
12383;SDS011;6256;63.808;20.336;2023-07-16T02:01:03;3.08;;;1.73;;
12383;SDS011;6256;63.808;20.336;2023-07-16T02:03:29;2.78;;;1.58;;
12383;SDS011;6256;63.808;20.336;2023-07-16T02:05:55;1.80;;;1.20;;
12383;SDS011;6256;63.808;20.336;2023-07-16T02:08:20;1.50;;;1.40;;
12383;SDS011;6256;63.808;20.336;2023-07-16T02:10:49;1.65;;;1.42;;
12383;SDS011;6256;63.808;20.336;2023-07-16T02:13:15;1.75;;;1.60;;
12383;SDS011;6256;63.808;20.336;2023-07-16T02:15:42;2.85;;;1.67;;
12383;SDS011;6256;63.808;20.336;2023-07-16T02:18:07;3.92;;;1.35;;
12383;SDS011;6256;63.808;20.336;2023-07-16T02:20:33;2.90;;;1.50;;
12383;SDS011;6256;63.808;20.336;2023-07-16T02:22:59;3.42;;;1.77;;
12383;SDS011;6256;63.808;20.336;2023-07-16T02:25:24;2.00;;;1.38;;
12383;SDS011;6256;63.808;20.336;2023-07-16T02:27:50;1.38;;;1.15;;
12383;SDS011;6256;63.808;20.336;2023-07-16T02:30:16;1.88;;;1.60;;
12383;SDS011;6256;63.808;20.336;2023-07-16T02:32:43;1.27;;;1.17;;
12383;SDS011;6256;63.808;20.336;2023-07-16T02:35:09;1.42;;;1.33;;
12383;SDS011;6256;63.808;20.336;2023-07-16T02:37:35;3.35;;;1.60;;
12383;SDS011;6256;63.808;20.336;2023-07-16T02:40:01;1.40;;;1.30;;
12383;SDS011;6256;63.808;20.336;2023-07-16T02:42:27;1.70;;;1.60;;
12383;SDS011;6256;63.808;20.336;2023-07-16T02:44:54;1.80;;;1.40;;
12383;SDS011;6256;63.808;20.336;2023-07-16T02:47:19;3.58;;;1.40;;
12383;SDS011;6256;63.808;20.336;2023-07-16T02:49:45;1.70;;;1.40;;
12383;SDS011;6256;63.808;20.336;2023-07-16T02:52:11;1.42;;;1.33;;
12383;SDS011;6256;63.808;20.336;2023-07-16T02:54:36;1.92;;;1.67;;
12383;SDS011;6256;63.808;20.336;2023-07-16T02:57:02;1.75;;;1.50;;
12383;SDS011;6256;63.808;20.336;2023-07-16T02:59:28;1.20;;;1.10;;
12383;SDS011;6256;63.808;20.336;2023-07-16T03:01:54;2.10;;;1.27;;
12383;SDS011;6256;63.808;20.336;2023-07-16T03:04:20;3.28;;;1.38;;
12383;SDS011;6256;63.808;20.336;2023-07-16T03:06:46;2.95;;;1.23;;
12383;SDS011;6256;63.808;20.336;2023-07-16T03:09:11;1.40;;;1.25;;
12383;SDS011;6256;63.808;20.336;2023-07-16T03:11:37;1.85;;;1.45;;
12383;SDS011;6256;63.808;20.336;2023-07-16T03:14:03;1.95;;;1.52;;
12383;SDS011;6256;63.808;20.336;2023-07-16T03:16:29;3.00;;;1.75;;
12383;SDS011;6256;63.808;20.336;2023-07-16T03:18:54;1.58;;;1.48;;
12383;SDS011;6256;63.808;20.336;2023-07-16T03:21:20;2.13;;;1.20;;
12383;SDS011;6256;63.808;20.336;2023-07-16T03:23:46;2.40;;;2.15;;
12383;SDS011;6256;63.808;20.336;2023-07-16T03:26:11;2.45;;;1.40;;
12383;SDS011;6256;63.808;20.336;2023-07-16T03:28:37;2.17;;;1.77;;
12383;SDS011;6256;63.808;20.336;2023-07-16T03:31:03;2.55;;;1.30;;
12383;SDS011;6256;63.808;20.336;2023-07-16T03:33:28;1.40;;;1.30;;
12383;SDS011;6256;63.808;20.336;2023-07-16T03:35:54;1.50;;;1.40;;
12383;SDS011;6256;63.808;20.336;2023-07-16T03:38:20;2.00;;;1.35;;
12383;SDS011;6256;63.808;20.336;2023-07-16T03:40:46;2.42;;;1.40;;
12383;SDS011;6256;63.808;20.336;2023-07-16T03:43:14;1.73;;;1.20;;
12383;SDS011;6256;63.808;20.336;2023-07-16T03:45:40;2.22;;;1.55;;
12383;SDS011;6256;63.808;20.336;2023-07-16T03:48:06;3.03;;;1.45;;
12383;SDS011;6256;63.808;20.336;2023-07-16T03:50:32;2.65;;;1.27;;
12383;SDS011;6256;63.808;20.336;2023-07-16T03:52:58;1.40;;;1.30;;
12383;SDS011;6256;63.808;20.336;2023-07-16T03:55:24;1.55;;;1.38;;
12383;SDS011;6256;63.808;20.336;2023-07-16T03:57:50;1.15;;;1.05;;
12383;SDS011;6256;63.808;20.336;2023-07-16T04:00:16;3.00;;;1.35;;
12383;SDS011;6256;63.808;20.336;2023-07-16T04:02:42;1.73;;;1.30;;
12383;SDS011;6256;63.808;20.336;2023-07-16T04:05:08;1.90;;;1.50;;
12383;SDS011;6256;63.808;20.336;2023-07-16T04:07:34;1.65;;;1.30;;
12383;SDS011;6256;63.808;20.336;2023-07-16T04:09:59;1.33;;;1.10;;
12383;SDS011;6256;63.808;20.336;2023-07-16T04:12:25;2.15;;;1.08;;
12383;SDS011;6256;63.808;20.336;2023-07-16T04:14:55;2.28;;;1.40;;
12383;SDS011;6256;63.808;20.336;2023-07-16T04:17:22;1.45;;;1.35;;
12383;SDS011;6256;63.808;20.336;2023-07-16T04:19:48;1.52;;;1.23;;
12383;SDS011;6256;63.808;20.336;2023-07-16T04:22:14;1.70;;;1.30;;
12383;SDS011;6256;63.808;20.336;2023-07-16T04:24:40;1.50;;;1.38;;
12383;SDS011;6256;63.808;20.336;2023-07-16T04:27:05;2.15;;;1.25;;
12383;SDS011;6256;63.808;20.336;2023-07-16T04:29:31;1.98;;;1.30;;
12383;SDS011;6256;63.808;20.336;2023-07-16T04:31:57;2.17;;;1.52;;
12383;SDS011;6256;63.808;20.336;2023-07-16T04:34:23;1.70;;;1.27;;
12383;SDS011;6256;63.808;20.336;2023-07-16T04:36:48;1.98;;;1.50;;
12383;SDS011;6256;63.808;20.336;2023-07-16T04:39:14;2.05;;;1.50;;
12383;SDS011;6256;63.808;20.336;2023-07-16T04:41:40;1.45;;;1.33;;
12383;SDS011;6256;63.808;20.336;2023-07-16T04:44:05;1.73;;;1.58;;
12383;SDS011;6256;63.808;20.336;2023-07-16T04:46:31;2.17;;;1.50;;
12383;SDS011;6256;63.808;20.336;2023-07-16T04:48:57;2.13;;;1.40;;
12383;SDS011;6256;63.808;20.336;2023-07-16T04:51:23;1.60;;;1.50;;
12383;SDS011;6256;63.808;20.336;2023-07-16T04:53:48;1.90;;;1.70;;
12383;SDS011;6256;63.808;20.336;2023-07-16T04:56:15;1.55;;;1.45;;
12383;SDS011;6256;63.808;20.336;2023-07-16T04:58:41;1.83;;;1.73;;
12383;SDS011;6256;63.808;20.336;2023-07-16T05:01:08;1.80;;;1.70;;
12383;SDS011;6256;63.808;20.336;2023-07-16T05:03:34;2.20;;;2.00;;
12383;SDS011;6256;63.808;20.336;2023-07-16T05:06:00;1.63;;;1.52;;
12383;SDS011;6256;63.808;20.336;2023-07-16T05:08:26;2.33;;;1.70;;
12383;SDS011;6256;63.808;20.336;2023-07-16T05:10:52;2.58;;;2.05;;
12383;SDS011;6256;63.808;20.336;2023-07-16T05:13:18;1.80;;;1.45;;
12383;SDS011;6256;63.808;20.336;2023-07-16T05:15:44;3.47;;;1.95;;
12383;SDS011;6256;63.808;20.336;2023-07-16T05:18:09;2.65;;;2.00;;
12383;SDS011;6256;63.808;20.336;2023-07-16T05:20:35;4.00;;;2.20;;
12383;SDS011;6256;63.808;20.336;2023-07-16T05:23:01;3.80;;;1.58;;
12383;SDS011;6256;63.808;20.336;2023-07-16T05:25:27;2.20;;;1.88;;
12383;SDS011;6256;63.808;20.336;2023-07-16T05:27:52;3.78;;;1.85;;
12383;SDS011;6256;63.808;20.336;2023-07-16T05:30:19;3.60;;;1.77;;
12383;SDS011;6256;63.808;20.336;2023-07-16T05:32:45;2.30;;;1.85;;
12383;SDS011;6256;63.808;20.336;2023-07-16T05:35:11;2.38;;;1.58;;
12383;SDS011;6256;63.808;20.336;2023-07-16T05:37:37;2.25;;;1.73;;
12383;SDS011;6256;63.808;20.336;2023-07-16T05:40:02;4.50;;;1.77;;
12383;SDS011;6256;63.808;20.336;2023-07-16T05:42:29;3.05;;;1.75;;
12383;SDS011;6256;63.808;20.336;2023-07-16T05:44:54;2.60;;;1.80;;
12383;SDS011;6256;63.808;20.336;2023-07-16T05:47:20;1.63;;;1.52;;
12383;SDS011;6256;63.808;20.336;2023-07-16T05:49:46;2.10;;;1.90;;
12383;SDS011;6256;63.808;20.336;2023-07-16T05:52:12;2.88;;;1.67;;
12383;SDS011;6256;63.808;20.336;2023-07-16T05:54:38;1.73;;;1.63;;
12383;SDS011;6256;63.808;20.336;2023-07-16T05:57:04;2.50;;;2.10;;
12383;SDS011;6256;63.808;20.336;2023-07-16T05:59:30;3.00;;;1.85;;
12383;SDS011;6256;63.808;20.336;2023-07-16T06:01:59;2.00;;;1.63;;
12383;SDS011;6256;63.808;20.336;2023-07-16T06:04:25;2.85;;;1.75;;
12383;SDS011;6256;63.808;20.336;2023-07-16T06:06:50;2.28;;;2.05;;
12383;SDS011;6256;63.808;20.336;2023-07-16T06:09:16;2.92;;;1.73;;
12383;SDS011;6256;63.808;20.336;2023-07-16T06:11:42;2.58;;;1.92;;
12383;SDS011;6256;63.808;20.336;2023-07-16T06:14:10;3.58;;;1.95;;
12383;SDS011;6256;63.808;20.336;2023-07-16T06:16:36;3.72;;;1.75;;
12383;SDS011;6256;63.808;20.336;2023-07-16T06:19:02;2.63;;;2.00;;
12383;SDS011;6256;63.808;20.336;2023-07-16T06:21:27;2.20;;;1.90;;
12383;SDS011;6256;63.808;20.336;2023-07-16T06:23:53;2.83;;;2.20;;
12383;SDS011;6256;63.808;20.336;2023-07-16T06:26:19;4.43;;;1.85;;
12383;SDS011;6256;63.808;20.336;2023-07-16T06:28:45;2.50;;;2.30;;
12383;SDS011;6256;63.808;20.336;2023-07-16T06:31:14;3.42;;;1.75;;
12383;SDS011;6256;63.808;20.336;2023-07-16T06:33:40;2.92;;;1.88;;
12383;SDS011;6256;63.808;20.336;2023-07-16T06:36:06;4.38;;;1.75;;
12383;SDS011;6256;63.808;20.336;2023-07-16T06:38:31;4.55;;;2.13;;
12383;SDS011;6256;63.808;20.336;2023-07-16T06:40:57;3.42;;;2.10;;
12383;SDS011;6256;63.808;20.336;2023-07-16T06:43:23;5.03;;;1.80;;
12383;SDS011;6256;63.808;20.336;2023-07-16T06:45:49;2.20;;;1.65;;
12383;SDS011;6256;63.808;20.336;2023-07-16T06:48:18;3.28;;;2.00;;
12383;SDS011;6256;63.808;20.336;2023-07-16T06:50:44;1.98;;;1.88;;
12383;SDS011;6256;63.808;20.336;2023-07-16T06:53:09;5.32;;;1.50;;
12383;SDS011;6256;63.808;20.336;2023-07-16T06:55:35;2.10;;;1.50;;
12383;SDS011;6256;63.808;20.336;2023-07-16T06:58:02;3.10;;;1.80;;
12383;SDS011;6256;63.808;20.336;2023-07-16T07:00:30;6.05;;;2.22;;
12383;SDS011;6256;63.808;20.336;2023-07-16T07:02:57;2.88;;;2.00;;
12383;SDS011;6256;63.808;20.336;2023-07-16T07:05:22;3.00;;;1.50;;
12383;SDS011;6256;63.808;20.336;2023-07-16T07:07:48;1.90;;;1.60;;
12383;SDS011;6256;63.808;20.336;2023-07-16T07:10:14;2.38;;;1.90;;
12383;SDS011;6256;63.808;20.336;2023-07-16T07:12:40;2.72;;;1.85;;
12383;SDS011;6256;63.808;20.336;2023-07-16T07:15:06;2.25;;;2.03;;
12383;SDS011;6256;63.808;20.336;2023-07-16T07:17:32;1.75;;;1.65;;
12383;SDS011;6256;63.808;20.336;2023-07-16T07:19:58;1.70;;;1.60;;
12383;SDS011;6256;63.808;20.336;2023-07-16T07:22:25;4.68;;;1.92;;
12383;SDS011;6256;63.808;20.336;2023-07-16T07:24:51;3.63;;;1.73;;
12383;SDS011;6256;63.808;20.336;2023-07-16T07:27:16;3.50;;;1.70;;
12383;SDS011;6256;63.808;20.336;2023-07-16T07:29:42;2.85;;;1.70;;
12383;SDS011;6256;63.808;20.336;2023-07-16T07:32:08;1.55;;;1.45;;
12383;SDS011;6256;63.808;20.336;2023-07-16T07:34:33;2.17;;;1.30;;
12383;SDS011;6256;63.808;20.336;2023-07-16T07:36:59;4.68;;;1.80;;
12383;SDS011;6256;63.808;20.336;2023-07-16T07:39:25;1.58;;;1.48;;
12383;SDS011;6256;63.808;20.336;2023-07-16T07:41:50;3.42;;;1.65;;
12383;SDS011;6256;63.808;20.336;2023-07-16T07:44:16;1.77;;;1.52;;
12383;SDS011;6256;63.808;20.336;2023-07-16T07:46:42;1.65;;;1.55;;
12383;SDS011;6256;63.808;20.336;2023-07-16T07:49:07;3.33;;;1.75;;
12383;SDS011;6256;63.808;20.336;2023-07-16T07:51:33;2.47;;;1.75;;
12383;SDS011;6256;63.808;20.336;2023-07-16T07:53:59;1.98;;;1.88;;
12383;SDS011;6256;63.808;20.336;2023-07-16T07:56:25;1.98;;;1.73;;
12383;SDS011;6256;63.808;20.336;2023-07-16T07:58:51;2.78;;;1.73;;
12383;SDS011;6256;63.808;20.336;2023-07-16T08:01:16;2.65;;;2.00;;
12383;SDS011;6256;63.808;20.336;2023-07-16T08:03:42;2.63;;;1.92;;
12383;SDS011;6256;63.808;20.336;2023-07-16T08:06:08;2.03;;;1.70;;
12383;SDS011;6256;63.808;20.336;2023-07-16T08:08:36;2.10;;;1.67;;
12383;SDS011;6256;63.808;20.336;2023-07-16T08:11:01;2.63;;;1.73;;
12383;SDS011;6256;63.808;20.336;2023-07-16T08:13:27;2.17;;;1.80;;
12383;SDS011;6256;63.808;20.336;2023-07-16T08:15:53;3.85;;;1.77;;
12383;SDS011;6256;63.808;20.336;2023-07-16T08:18:18;1.98;;;1.70;;
12383;SDS011;6256;63.808;20.336;2023-07-16T08:20:44;1.85;;;1.75;;
12383;SDS011;6256;63.808;20.336;2023-07-16T08:23:12;2.30;;;1.90;;
12383;SDS011;6256;63.808;20.336;2023-07-16T08:25:37;2.03;;;1.83;;
12383;SDS011;6256;63.808;20.336;2023-07-16T08:28:03;2.60;;;2.00;;
12383;SDS011;6256;63.808;20.336;2023-07-16T08:30:29;1.98;;;1.83;;
12383;SDS011;6256;63.808;20.336;2023-07-16T08:32:55;2.17;;;1.75;;
12383;SDS011;6256;63.808;20.336;2023-07-16T08:35:20;3.20;;;1.80;;
12383;SDS011;6256;63.808;20.336;2023-07-16T08:37:46;3.05;;;2.20;;
12383;SDS011;6256;63.808;20.336;2023-07-16T08:40:12;2.35;;;1.65;;
12383;SDS011;6256;63.808;20.336;2023-07-16T08:42:38;4.07;;;2.03;;
12383;SDS011;6256;63.808;20.336;2023-07-16T08:45:09;1.67;;;1.58;;
12383;SDS011;6256;63.808;20.336;2023-07-16T08:47:36;3.67;;;1.83;;
12383;SDS011;6256;63.808;20.336;2023-07-16T08:50:02;2.70;;;1.73;;
12383;SDS011;6256;63.808;20.336;2023-07-16T08:52:28;1.73;;;1.63;;
12383;SDS011;6256;63.808;20.336;2023-07-16T08:54:54;1.60;;;1.50;;
12383;SDS011;6256;63.808;20.336;2023-07-16T08:57:21;4.05;;;1.88;;
12383;SDS011;6256;63.808;20.336;2023-07-16T08:59:47;2.38;;;1.60;;
12383;SDS011;6256;63.808;20.336;2023-07-16T09:02:16;2.20;;;1.80;;
12383;SDS011;6256;63.808;20.336;2023-07-16T09:04:43;3.30;;;1.52;;
12383;SDS011;6256;63.808;20.336;2023-07-16T09:07:09;2.10;;;1.55;;
12383;SDS011;6256;63.808;20.336;2023-07-16T09:09:34;1.58;;;1.48;;
12383;SDS011;6256;63.808;20.336;2023-07-16T09:12:01;3.72;;;1.55;;
12383;SDS011;6256;63.808;20.336;2023-07-16T09:14:27;1.50;;;1.40;;
12383;SDS011;6256;63.808;20.336;2023-07-16T09:16:53;1.50;;;1.40;;
12383;SDS011;6256;63.808;20.336;2023-07-16T09:19:19;1.38;;;1.20;;
12383;SDS011;6256;63.808;20.336;2023-07-16T09:21:46;2.00;;;1.80;;
12383;SDS011;6256;63.808;20.336;2023-07-16T09:24:13;1.50;;;1.40;;
12383;SDS011;6256;63.808;20.336;2023-07-16T09:26:39;1.48;;;1.38;;
12383;SDS011;6256;63.808;20.336;2023-07-16T09:29:15;2.22;;;1.80;;
12383;SDS011;6256;63.808;20.336;2023-07-16T09:31:54;1.77;;;1.63;;
12383;SDS011;6256;63.808;20.336;2023-07-16T09:34:31;2.97;;;2.10;;
12383;SDS011;6256;63.808;20.336;2023-07-16T09:36:58;2.22;;;1.67;;
12383;SDS011;6256;63.808;20.336;2023-07-16T09:39:25;3.25;;;1.70;;
12383;SDS011;6256;63.808;20.336;2023-07-16T09:41:51;1.90;;;1.80;;
12383;SDS011;6256;63.808;20.336;2023-07-16T09:44:17;1.88;;;1.65;;
12383;SDS011;6256;63.808;20.336;2023-07-16T09:46:44;2.78;;;2.08;;
12383;SDS011;6256;63.808;20.336;2023-07-16T09:49:11;2.20;;;1.98;;
12383;SDS011;6256;63.808;20.336;2023-07-16T09:51:37;2.63;;;1.98;;
12383;SDS011;6256;63.808;20.336;2023-07-16T09:54:04;1.98;;;1.88;;
12383;SDS011;6256;63.808;20.336;2023-07-16T09:59:11;3.00;;;2.00;;
12383;SDS011;6256;63.808;20.336;2023-07-16T10:01:41;1.70;;;1.60;;
12383;SDS011;6256;63.808;20.336;2023-07-16T10:04:16;1.98;;;1.75;;
12383;SDS011;6256;63.808;20.336;2023-07-16T10:06:53;2.45;;;1.60;;
12383;SDS011;6256;63.808;20.336;2023-07-16T10:09:35;2.20;;;1.83;;
12383;SDS011;6256;63.808;20.336;2023-07-16T10:14:54;3.22;;;1.80;;
12383;SDS011;6256;63.808;20.336;2023-07-16T10:17:26;3.17;;;1.80;;
12383;SDS011;6256;63.808;20.336;2023-07-16T10:22:38;2.08;;;1.52;;
12383;SDS011;6256;63.808;20.336;2023-07-16T10:25:08;2.05;;;1.80;;
12383;SDS011;6256;63.808;20.336;2023-07-16T10:27:43;2.50;;;1.90;;
12383;SDS011;6256;63.808;20.336;2023-07-16T10:30:13;1.63;;;1.50;;
12383;SDS011;6256;63.808;20.336;2023-07-16T10:32:39;3.33;;;1.70;;
12383;SDS011;6256;63.808;20.336;2023-07-16T10:35:06;1.95;;;1.55;;
12383;SDS011;6256;63.808;20.336;2023-07-16T10:37:36;2.53;;;1.70;;
12383;SDS011;6256;63.808;20.336;2023-07-16T10:40:02;1.92;;;1.65;;
12383;SDS011;6256;63.808;20.336;2023-07-16T10:42:29;2.42;;;1.60;;
12383;SDS011;6256;63.808;20.336;2023-07-16T10:45:00;1.77;;;1.40;;
12383;SDS011;6256;63.808;20.336;2023-07-16T10:47:33;1.60;;;1.42;;
12383;SDS011;6256;63.808;20.336;2023-07-16T10:50:00;1.90;;;1.70;;
12383;SDS011;6256;63.808;20.336;2023-07-16T10:52:30;1.90;;;1.63;;
12383;SDS011;6256;63.808;20.336;2023-07-16T10:54:56;1.88;;;1.60;;
12383;SDS011;6256;63.808;20.336;2023-07-16T10:57:23;1.83;;;1.65;;
12383;SDS011;6256;63.808;20.336;2023-07-16T10:59:56;3.08;;;1.85;;
12383;SDS011;6256;63.808;20.336;2023-07-16T11:02:23;2.00;;;1.90;;
12383;SDS011;6256;63.808;20.336;2023-07-16T11:04:50;2.33;;;1.40;;
12383;SDS011;6256;63.808;20.336;2023-07-16T11:07:18;2.05;;;1.85;;
12383;SDS011;6256;63.808;20.336;2023-07-16T11:09:49;1.90;;;1.80;;
12383;SDS011;6256;63.808;20.336;2023-07-16T11:12:16;1.73;;;1.63;;
12383;SDS011;6256;63.808;20.336;2023-07-16T11:14:47;2.08;;;1.88;;
12383;SDS011;6256;63.808;20.336;2023-07-16T11:17:14;2.35;;;2.15;;
12383;SDS011;6256;63.808;20.336;2023-07-16T11:19:41;5.38;;;2.30;;
12383;SDS011;6256;63.808;20.336;2023-07-16T11:22:10;2.47;;;1.92;;
12383;SDS011;6256;63.808;20.336;2023-07-16T11:24:36;2.05;;;1.85;;
12383;SDS011;6256;63.808;20.336;2023-07-16T11:27:13;3.60;;;2.20;;
12383;SDS011;6256;63.808;20.336;2023-07-16T11:29:50;3.13;;;2.10;;
12383;SDS011;6256;63.808;20.336;2023-07-16T11:32:34;2.20;;;1.95;;
12383;SDS011;6256;63.808;20.336;2023-07-16T11:35:07;3.08;;;1.85;;
12383;SDS011;6256;63.808;20.336;2023-07-16T11:37:34;3.65;;;2.15;;
12383;SDS011;6256;63.808;20.336;2023-07-16T11:40:05;5.38;;;2.63;;
12383;SDS011;6256;63.808;20.336;2023-07-16T11:42:36;3.53;;;2.33;;
12383;SDS011;6256;63.808;20.336;2023-07-16T11:45:03;2.95;;;2.60;;
12383;SDS011;6256;63.808;20.336;2023-07-16T11:47:30;3.00;;;2.60;;
12383;SDS011;6256;63.808;20.336;2023-07-16T11:49:56;2.60;;;2.40;;
12383;SDS011;6256;63.808;20.336;2023-07-16T11:52:23;3.88;;;2.60;;
12383;SDS011;6256;63.808;20.336;2023-07-16T11:54:53;4.47;;;2.47;;
12383;SDS011;6256;63.808;20.336;2023-07-16T11:57:21;4.38;;;3.28;;
12383;SDS011;6256;63.808;20.336;2023-07-16T11:59:48;4.38;;;2.47;;
12383;SDS011;6256;63.808;20.336;2023-07-16T12:02:14;4.55;;;2.90;;
12383;SDS011;6256;63.808;20.336;2023-07-16T12:04:40;4.43;;;2.88;;
12383;SDS011;6256;63.808;20.336;2023-07-16T12:07:06;5.13;;;2.92;;
12383;SDS011;6256;63.808;20.336;2023-07-16T12:09:32;6.97;;;2.88;;
12383;SDS011;6256;63.808;20.336;2023-07-16T12:11:57;6.38;;;3.08;;
12383;SDS011;6256;63.808;20.336;2023-07-16T12:14:24;4.88;;;2.72;;
12383;SDS011;6256;63.808;20.336;2023-07-16T12:16:49;4.88;;;2.70;;
12383;SDS011;6256;63.808;20.336;2023-07-16T12:19:15;3.22;;;2.88;;
12383;SDS011;6256;63.808;20.336;2023-07-16T12:21:41;4.95;;;2.85;;
12383;SDS011;6256;63.808;20.336;2023-07-16T12:24:07;4.80;;;3.15;;
12383;SDS011;6256;63.808;20.336;2023-07-16T12:26:32;3.22;;;2.53;;
12383;SDS011;6256;63.808;20.336;2023-07-16T12:28:59;5.28;;;2.80;;
12383;SDS011;6256;63.808;20.336;2023-07-16T12:31:27;3.88;;;2.75;;
12383;SDS011;6256;63.808;20.336;2023-07-16T12:33:54;5.50;;;2.88;;
12383;SDS011;6256;63.808;20.336;2023-07-16T12:36:20;3.80;;;2.83;;
12383;SDS011;6256;63.808;20.336;2023-07-16T12:38:45;3.47;;;2.50;;
12383;SDS011;6256;63.808;20.336;2023-07-16T12:41:11;4.72;;;2.50;;
12383;SDS011;6256;63.808;20.336;2023-07-16T12:43:37;3.10;;;2.80;;
12383;SDS011;6256;63.808;20.336;2023-07-16T12:46:04;3.45;;;2.88;;
12383;SDS011;6256;63.808;20.336;2023-07-16T12:48:30;5.00;;;2.88;;
12383;SDS011;6256;63.808;20.336;2023-07-16T12:50:56;3.97;;;3.30;;
12383;SDS011;6256;63.808;20.336;2023-07-16T12:53:23;5.05;;;3.00;;
12383;SDS011;6256;63.808;20.336;2023-07-16T12:55:49;3.42;;;3.13;;
12383;SDS011;6256;63.808;20.336;2023-07-16T12:58:15;3.15;;;2.50;;
12383;SDS011;6256;63.808;20.336;2023-07-16T13:00:40;3.45;;;2.55;;
12383;SDS011;6256;63.808;20.336;2023-07-16T13:03:06;3.45;;;2.50;;
12383;SDS011;6256;63.808;20.336;2023-07-16T13:05:36;4.15;;;2.78;;
12383;SDS011;6256;63.808;20.336;2023-07-16T13:08:05;3.92;;;3.00;;
12383;SDS011;6256;63.808;20.336;2023-07-16T13:10:31;5.68;;;2.72;;
12383;SDS011;6256;63.808;20.336;2023-07-16T13:12:56;3.78;;;2.90;;
12383;SDS011;6256;63.808;20.336;2023-07-16T13:15:22;4.60;;;2.88;;
12383;SDS011;6256;63.808;20.336;2023-07-16T13:17:48;4.72;;;2.88;;
12383;SDS011;6256;63.808;20.336;2023-07-16T13:20:14;7.57;;;3.10;;
12383;SDS011;6256;63.808;20.336;2023-07-16T13:22:39;6.38;;;3.00;;
12383;SDS011;6256;63.808;20.336;2023-07-16T13:25:05;5.53;;;3.33;;
12383;SDS011;6256;63.808;20.336;2023-07-16T13:27:31;7.18;;;2.97;;
12383;SDS011;6256;63.808;20.336;2023-07-16T13:29:58;3.80;;;3.10;;
12383;SDS011;6256;63.808;20.336;2023-07-16T13:32:24;6.32;;;3.22;;
12383;SDS011;6256;63.808;20.336;2023-07-16T13:34:50;8.60;;;3.50;;
12383;SDS011;6256;63.808;20.336;2023-07-16T13:37:15;4.18;;;2.80;;
12383;SDS011;6256;63.808;20.336;2023-07-16T13:39:41;3.50;;;2.80;;
12383;SDS011;6256;63.808;20.336;2023-07-16T13:42:07;4.20;;;2.78;;
12383;SDS011;6256;63.808;20.336;2023-07-16T13:44:33;4.63;;;2.92;;
12383;SDS011;6256;63.808;20.336;2023-07-16T13:46:59;6.50;;;3.00;;
12383;SDS011;6256;63.808;20.336;2023-07-16T13:49:24;4.90;;;2.83;;
12383;SDS011;6256;63.808;20.336;2023-07-16T13:51:50;8.13;;;2.95;;
12383;SDS011;6256;63.808;20.336;2023-07-16T13:54:16;4.60;;;3.33;;
12383;SDS011;6256;63.808;20.336;2023-07-16T13:56:41;3.85;;;2.38;;
12383;SDS011;6256;63.808;20.336;2023-07-16T13:59:07;4.05;;;3.00;;
12383;SDS011;6256;63.808;20.336;2023-07-16T14:01:37;4.68;;;2.70;;
12383;SDS011;6256;63.808;20.336;2023-07-16T14:04:04;3.35;;;2.55;;
12383;SDS011;6256;63.808;20.336;2023-07-16T14:06:30;4.57;;;2.53;;
12383;SDS011;6256;63.808;20.336;2023-07-16T14:08:55;3.95;;;2.97;;
12383;SDS011;6256;63.808;20.336;2023-07-16T14:11:22;3.20;;;2.78;;
12383;SDS011;6256;63.808;20.336;2023-07-16T14:13:48;4.50;;;3.00;;
12383;SDS011;6256;63.808;20.336;2023-07-16T14:16:16;3.05;;;2.75;;
12383;SDS011;6256;63.808;20.336;2023-07-16T14:18:52;4.00;;;2.85;;
12383;SDS011;6256;63.808;20.336;2023-07-16T14:21:19;3.50;;;2.80;;
12383;SDS011;6256;63.808;20.336;2023-07-16T14:23:45;6.03;;;2.83;;
12383;SDS011;6256;63.808;20.336;2023-07-16T14:26:11;6.32;;;2.90;;
12383;SDS011;6256;63.808;20.336;2023-07-16T14:28:37;4.32;;;2.75;;
12383;SDS011;6256;63.808;20.336;2023-07-16T14:31:03;5.82;;;2.40;;
12383;SDS011;6256;63.808;20.336;2023-07-16T14:33:29;4.05;;;2.85;;
12383;SDS011;6256;63.808;20.336;2023-07-16T14:35:56;6.68;;;2.90;;
12383;SDS011;6256;63.808;20.336;2023-07-16T14:38:22;4.25;;;3.28;;
12383;SDS011;6256;63.808;20.336;2023-07-16T14:40:48;6.35;;;2.88;;
12383;SDS011;6256;63.808;20.336;2023-07-16T14:43:16;3.30;;;2.75;;
12383;SDS011;6256;63.808;20.336;2023-07-16T14:45:41;4.35;;;2.22;;
12383;SDS011;6256;63.808;20.336;2023-07-16T14:48:07;3.08;;;2.42;;
12383;SDS011;6256;63.808;20.336;2023-07-16T14:50:34;3.03;;;2.67;;
12383;SDS011;6256;63.808;20.336;2023-07-16T14:53:00;3.72;;;2.38;;
12383;SDS011;6256;63.808;20.336;2023-07-16T14:55:26;3.65;;;2.72;;
12383;SDS011;6256;63.808;20.336;2023-07-16T14:57:51;4.07;;;2.65;;
12383;SDS011;6256;63.808;20.336;2023-07-16T15:00:17;1.83;;;1.65;;